createdAt,value
2022-10-23T00:02:24.246Z,100297.20
2022-10-23T00:05:10.250Z,100295.60
2022-10-23T00:07:40.007Z,100285.80
2022-10-23T00:10:12.699Z,100287.80
2022-10-23T00:12:43.445Z,100285.80
2022-10-23T00:15:14.489Z,100286.20
2022-10-23T00:17:44.679Z,100287.40
2022-10-23T00:20:18.247Z,100282.80
2022-10-23T00:22:47.246Z,100291.60
2022-10-23T00:25:41.961Z,100293.20
2022-10-23T00:28:24.528Z,100291.00
2022-10-23T00:31:06.971Z,100295.00
2022-10-23T00:33:44.173Z,100290.60
2022-10-23T00:36:22.462Z,100294.00
2022-10-23T00:39:18.456Z,100295.20
2022-10-23T00:41:50.900Z,100296.40
2022-10-23T00:44:46.193Z,100295.80
2022-10-23T00:47:20.466Z,100295.40
2022-10-23T00:49:48.339Z,100295.00
2022-10-23T00:52:15.839Z,100290.60
2022-10-23T00:55:11.886Z,100290.20
2022-10-23T00:57:45.186Z,100295.20
2022-10-23T01:00:20.285Z,100297.40
2022-10-23T01:02:48.267Z,100298.00
2022-10-23T01:05:40.499Z,100302.80
2022-10-23T01:08:25.016Z,100303.00
2022-10-23T01:11:35.266Z,100303.40
2022-10-23T01:14:29.577Z,100297.60
2022-10-23T01:17:19.046Z,100305.60
2022-10-23T01:20:07.268Z,100305.20
2022-10-23T01:23:10.434Z,100306.60
2022-10-23T01:26:18.494Z,100312.80
2022-10-23T01:29:00.695Z,100317.20
2022-10-23T01:31:42.103Z,100317.40
2022-10-23T01:34:47.949Z,100315.40
2022-10-23T01:38:02.118Z,100312.80
2022-10-23T01:40:44.886Z,100317.80
2022-10-23T01:43:24.900Z,100318.80
2022-10-23T01:46:15.076Z,100320.20
2022-10-23T01:49:14.825Z,100320.00
2022-10-23T01:52:04.129Z,100320.40
2022-10-23T01:54:45.209Z,100323.80
2022-10-23T01:57:19.862Z,100316.40
2022-10-23T02:00:04.169Z,100319.40
2022-10-23T02:02:37.888Z,100317.80
2022-10-23T02:05:26.945Z,100319.60
2022-10-23T02:08:01.844Z,100327.40
2022-10-23T02:10:56.100Z,100330.60
2022-10-23T02:14:24.222Z,100328.60
2022-10-23T02:17:26.173Z,100343.60
2022-10-23T02:20:46.173Z,100341.80
2022-10-23T02:23:43.247Z,100331.40
2022-10-23T02:26:40.441Z,100329.40
2022-10-23T02:29:33.693Z,100330.60
2022-10-23T02:32:34.501Z,100332.20
2022-10-23T02:35:07.084Z,100336.60
2022-10-23T02:38:50.805Z,100332.80
2022-10-23T02:42:11.902Z,100331.20
2022-10-23T02:45:26.003Z,100327.40
2022-10-23T02:48:35.466Z,100323.60
2022-10-23T02:51:42.108Z,100315.80
2022-10-23T02:54:44.001Z,100319.40
2022-10-23T02:57:53.102Z,100314.60
2022-10-23T03:00:24.105Z,100326.20
2022-10-23T03:02:59.895Z,100324.40
2022-10-23T03:05:47.030Z,100328.00
2022-10-23T03:08:19.939Z,100334.60
2022-10-23T03:10:54.211Z,100334.20
2022-10-23T03:13:27.596Z,100332.20
2022-10-23T03:16:33.407Z,100326.40
2022-10-23T03:19:03.971Z,100327.40
2022-10-23T03:21:33.971Z,100325.20
2022-10-23T03:24:04.478Z,100324.00
2022-10-23T03:27:05.669Z,100320.80
2022-10-23T03:29:48.067Z,100331.00
2022-10-23T03:32:54.139Z,100322.80
2022-10-23T03:35:33.910Z,100329.60
2022-10-23T03:38:31.087Z,100321.20
2022-10-23T03:41:29.030Z,100330.40
2022-10-23T03:44:31.329Z,100329.60
2022-10-23T03:47:12.273Z,100329.40
2022-10-23T03:49:57.366Z,100323.80
2022-10-23T03:53:05.490Z,100326.60
2022-10-23T03:55:35.935Z,100323.00
2022-10-23T03:58:12.729Z,100318.20
2022-10-23T04:00:49.066Z,100317.20
2022-10-23T04:03:18.576Z,100315.60
2022-10-23T04:05:52.077Z,100318.00
2022-10-23T04:08:24.415Z,100311.40
2022-10-23T04:11:02.315Z,100310.20
2022-10-23T04:13:39.790Z,100309.40
2022-10-23T04:16:08.846Z,100306.40
2022-10-23T04:19:10.918Z,100307.60
2022-10-23T04:21:44.569Z,100311.00
2022-10-23T04:24:47.469Z,100307.00
2022-10-23T04:27:24.097Z,100311.40
2022-10-23T04:30:04.323Z,100311.20
2022-10-23T04:33:02.655Z,100308.40
2022-10-23T04:35:42.285Z,100316.00
2022-10-23T04:38:37.710Z,100317.00
2022-10-23T04:41:06.247Z,100317.40
2022-10-23T04:43:37.959Z,100322.40
2022-10-23T04:46:14.936Z,100332.60
2022-10-23T04:48:46.510Z,100333.60
2022-10-23T04:51:14.714Z,100335.40
2022-10-23T04:54:02.272Z,100337.80
2022-10-23T04:56:48.378Z,100333.40
2022-10-23T04:59:44.709Z,100337.60
2022-10-23T05:02:12.175Z,100340.60
2022-10-23T05:04:39.555Z,100341.40
2022-10-23T05:07:06.716Z,100345.80
2022-10-23T05:09:34.115Z,100346.80
2022-10-23T05:12:01.435Z,100350.00
2022-10-23T05:14:28.624Z,100355.60
2022-10-23T05:17:02.236Z,100356.00
2022-10-23T05:19:41.055Z,100356.00
2022-10-23T05:22:10.197Z,100361.60
2022-10-23T05:24:37.716Z,100360.40
2022-10-23T05:27:05.095Z,100366.40
2022-10-23T05:29:32.396Z,100362.40
2022-10-23T05:32:06.295Z,100364.60
2022-10-23T05:34:36.275Z,100358.40
2022-10-23T05:37:08.497Z,100355.80
2022-10-23T05:39:35.975Z,100359.20
2022-10-23T05:42:03.278Z,100357.20
2022-10-23T05:44:30.717Z,100359.80
2022-10-23T05:46:58.236Z,100357.40
2022-10-23T05:49:26.143Z,100350.00
2022-10-23T05:51:53.516Z,100349.80
2022-10-23T05:54:20.715Z,100345.00
2022-10-23T05:56:47.936Z,100344.80
2022-10-23T05:59:19.066Z,100349.20
2022-10-23T06:01:49.427Z,100349.40
2022-10-23T06:04:16.798Z,100340.20
2022-10-23T06:06:46.595Z,100339.00
2022-10-23T06:09:15.195Z,100336.20
2022-10-23T06:11:42.994Z,100345.40
2022-10-23T06:14:10.697Z,100348.80
2022-10-23T06:16:37.935Z,100355.20
2022-10-23T06:19:05.317Z,100356.20
2022-10-23T06:21:37.196Z,100353.80
2022-10-23T06:24:06.959Z,100359.20
2022-10-23T06:26:34.423Z,100358.40
2022-10-23T06:29:01.798Z,100351.60
2022-10-23T06:31:29.297Z,100356.00
2022-10-23T06:33:58.876Z,100359.80
2022-10-23T06:36:26.996Z,100363.00
2022-10-23T06:38:55.945Z,100367.20
2022-10-23T06:41:23.475Z,100370.00
2022-10-23T06:43:51.635Z,100373.60
2022-10-23T06:46:19.782Z,100373.60
2022-10-23T06:48:47.176Z,100375.40
2022-10-23T06:51:17.275Z,100379.60
2022-10-23T06:53:45.756Z,100376.60
2022-10-23T06:56:13.576Z,100378.80
2022-10-23T06:58:41.495Z,100377.20
2022-10-23T07:01:13.131Z,100381.20
2022-10-23T07:03:40.551Z,100379.40
2022-10-23T07:06:10.877Z,100380.80
2022-10-23T07:08:39.077Z,100376.40
2022-10-23T07:11:09.258Z,100376.60
2022-10-23T07:13:38.296Z,100371.80
2022-10-23T07:16:15.427Z,100368.00
2022-10-23T07:18:44.415Z,100368.20
2022-10-23T07:21:12.076Z,100361.80
2022-10-23T07:23:39.383Z,100362.80
2022-10-23T07:26:16.701Z,100368.20
2022-10-23T07:28:47.175Z,100371.80
2022-10-23T07:31:14.670Z,100373.40
2022-10-23T07:33:41.935Z,100373.60
2022-10-23T07:36:10.215Z,100372.60
2022-10-23T07:38:37.507Z,100369.40
2022-10-23T07:41:07.864Z,100364.60
2022-10-23T07:43:38.032Z,100362.80
2022-10-23T07:46:05.637Z,100363.00
2022-10-23T07:48:32.979Z,100368.20
2022-10-23T07:51:07.918Z,100362.20
2022-10-23T07:53:35.596Z,100361.60
2022-10-23T07:56:13.053Z,100368.60
2022-10-23T07:58:40.255Z,100365.60
2022-10-23T08:01:19.778Z,100366.00
2022-10-23T08:03:47.056Z,100372.00
2022-10-23T08:06:14.556Z,100374.40
2022-10-23T08:08:41.783Z,100378.20
2022-10-23T08:11:12.417Z,100385.40
2022-10-23T08:13:39.724Z,100385.00
2022-10-23T08:16:07.445Z,100388.80
2022-10-23T08:18:34.686Z,100388.00
2022-10-23T08:21:04.544Z,100390.20
2022-10-23T08:23:31.837Z,100386.00
2022-10-23T08:26:02.657Z,100376.40
2022-10-23T08:28:29.815Z,100381.00
2022-10-23T08:30:57.717Z,100379.20
2022-10-23T08:33:25.636Z,100371.20
2022-10-23T08:35:52.779Z,100372.00
2022-10-23T08:38:19.885Z,100371.40
2022-10-23T08:40:48.886Z,100374.40
2022-10-23T08:43:41.304Z,100376.80
2022-10-23T08:46:17.216Z,100378.40
2022-10-23T08:48:53.496Z,100380.80
2022-10-23T08:51:51.495Z,100382.40
2022-10-23T08:54:40.258Z,100383.80
2022-10-23T08:57:17.755Z,100389.20
2022-10-23T09:00:12.923Z,100388.60
2022-10-23T09:02:51.037Z,100392.00
2022-10-23T09:05:31.354Z,100388.60
2022-10-23T09:08:30.795Z,100388.40
2022-10-23T09:11:22.635Z,100382.60
2022-10-23T09:13:55.295Z,100388.40
2022-10-23T09:16:43.944Z,100388.80
2022-10-23T09:19:20.356Z,100390.80
2022-10-23T09:21:49.962Z,100392.40
2022-10-23T09:24:24.475Z,100391.00
2022-10-23T09:26:54.305Z,100382.80
2022-10-23T09:29:38.115Z,100382.20
2022-10-23T09:32:07.116Z,100385.40
2022-10-23T09:34:35.162Z,100384.20
2022-10-23T09:37:21.438Z,100380.80
2022-10-23T09:39:49.455Z,100383.60
2022-10-23T09:42:25.815Z,100383.80
2022-10-23T09:44:55.327Z,100388.20
2022-10-23T09:47:25.644Z,100390.80
2022-10-23T09:49:56.635Z,100395.40
2022-10-23T09:52:37.195Z,100395.80
2022-10-23T09:55:23.981Z,100394.40
2022-10-23T09:57:53.636Z,100385.40
2022-10-23T10:00:25.461Z,100382.40
2022-10-23T10:03:05.455Z,100384.20
2022-10-23T10:05:39.163Z,100388.80
2022-10-23T10:08:31.284Z,100380.80
2022-10-23T10:11:27.581Z,100377.60
2022-10-23T10:14:15.694Z,100373.60
2022-10-23T10:17:10.776Z,100368.80
2022-10-23T10:20:10.167Z,100373.00
2022-10-23T10:22:43.240Z,100372.00
2022-10-23T10:25:34.615Z,100368.40
2022-10-23T10:28:23.475Z,100361.40
2022-10-23T10:31:25.740Z,100359.40
2022-10-23T10:34:28.491Z,100358.20
2022-10-23T10:37:05.835Z,100358.20
2022-10-23T10:40:27.356Z,100355.80
2022-10-23T10:43:33.795Z,100345.60
2022-10-23T10:46:17.857Z,100349.40
2022-10-23T10:49:07.223Z,100339.80
2022-10-23T10:52:00.435Z,100336.20
2022-10-23T10:54:42.571Z,100336.20
2022-10-23T10:57:29.075Z,100327.40
2022-10-23T11:00:03.234Z,100329.40
2022-10-23T11:02:57.195Z,100323.20
2022-10-23T11:05:42.817Z,100323.40
2022-10-23T11:08:56.077Z,100312.40
2022-10-23T11:11:35.775Z,100312.80
2022-10-23T11:14:04.037Z,100312.40
2022-10-23T11:16:39.164Z,100312.00
2022-10-23T11:19:19.336Z,100306.20
2022-10-23T11:22:28.057Z,100307.80
2022-10-23T11:25:35.876Z,100305.20
2022-10-23T11:29:31.003Z,100304.60
2022-10-23T11:32:26.071Z,100311.40
2022-10-23T11:35:20.455Z,100313.60
2022-10-23T11:38:15.124Z,100312.40
2022-10-23T11:43:48.138Z,100299.20
2022-10-23T11:46:38.055Z,100290.40
2022-10-23T11:49:20.020Z,100289.60
2022-10-23T11:51:47.225Z,100288.80
2022-10-23T11:54:17.375Z,100281.60
2022-10-23T11:57:10.415Z,100274.40
2022-10-23T11:59:55.576Z,100272.60
2022-10-23T12:02:43.554Z,100271.20
2022-10-23T12:05:38.137Z,100266.20
2022-10-23T12:08:22.656Z,100262.20
2022-10-23T12:10:52.657Z,100256.80
2022-10-23T12:13:46.089Z,100254.20
2022-10-23T12:16:14.100Z,100246.00
2022-10-23T12:18:55.375Z,100242.40
2022-10-23T12:21:28.157Z,100234.00
2022-10-23T12:24:57.363Z,100229.80
2022-10-23T12:27:35.952Z,100231.80
2022-10-23T12:30:30.375Z,100225.40
2022-10-23T12:33:34.915Z,100221.60
2022-10-23T12:36:22.363Z,100218.20
2022-10-23T12:38:50.315Z,100212.40
2022-10-23T12:41:30.585Z,100207.00
2022-10-23T12:44:04.055Z,100208.80
2022-10-23T12:46:50.924Z,100199.00
2022-10-23T12:49:25.181Z,100199.80
2022-10-23T12:52:02.611Z,100199.20
2022-10-23T12:54:39.456Z,100204.80
2022-10-23T12:57:29.860Z,100201.20
2022-10-23T13:00:02.654Z,100197.00
2022-10-23T13:02:32.727Z,100203.60
2022-10-23T13:05:05.077Z,100197.00
2022-10-23T13:07:40.521Z,100194.00
2022-10-23T13:10:16.015Z,100194.00
2022-10-23T13:12:52.137Z,100191.80
2022-10-23T13:15:22.182Z,100193.00
2022-10-23T13:17:58.497Z,100185.80
2022-10-23T13:20:34.839Z,100178.80
2022-10-23T13:23:26.277Z,100172.40
2022-10-23T13:26:26.017Z,100170.60
2022-10-23T13:28:53.836Z,100167.60
2022-10-23T13:31:21.097Z,100171.80
2022-10-23T13:34:13.885Z,100170.60
2022-10-23T13:36:53.666Z,100174.00
2022-10-23T13:39:31.055Z,100172.00
2022-10-23T13:42:14.696Z,100173.40
2022-10-23T13:44:42.540Z,100169.00
2022-10-23T13:47:14.195Z,100160.20
2022-10-23T13:49:41.506Z,100157.80
2022-10-23T13:52:13.924Z,100159.20
2022-10-23T13:54:43.237Z,100156.00
2022-10-23T13:57:15.568Z,100160.60
2022-10-23T13:59:43.442Z,100161.00
2022-10-23T14:02:22.520Z,100157.80
2022-10-23T14:04:50.795Z,100158.40
2022-10-23T14:07:18.599Z,100158.00
2022-10-23T14:09:46.349Z,100159.20
2022-10-23T14:12:13.839Z,100161.40
2022-10-23T14:14:41.278Z,100160.00
2022-10-23T14:17:09.144Z,100163.60
2022-10-23T14:22:09.626Z,100160.00
2022-10-23T14:24:40.127Z,100156.00
2022-10-23T14:27:07.652Z,100151.40
2022-10-23T14:29:35.435Z,100153.80
2022-10-23T14:32:03.175Z,100155.00
2022-10-23T14:34:31.115Z,100152.20
2022-10-23T14:37:08.726Z,100156.20
2022-10-23T14:39:37.174Z,100155.80
2022-10-23T14:42:05.355Z,100148.40
2022-10-23T14:44:33.116Z,100149.80
2022-10-23T14:47:01.156Z,100145.40
2022-10-23T14:49:29.395Z,100139.40
2022-10-23T14:51:57.475Z,100136.80
2022-10-23T14:54:25.155Z,100136.40
2022-10-23T14:56:54.348Z,100136.20
2022-10-23T14:59:23.040Z,100130.60
2022-10-23T15:01:50.855Z,100128.60
2022-10-23T15:04:18.259Z,100133.00
2022-10-23T15:06:46.895Z,100132.60
2022-10-23T15:09:15.235Z,100132.20
2022-10-23T15:11:42.636Z,100126.40
2022-10-23T15:14:10.243Z,100130.20
2022-10-23T15:16:40.936Z,100136.20
2022-10-23T15:19:17.395Z,100133.80
2022-10-23T15:21:48.663Z,100131.00
2022-10-23T15:24:17.506Z,100125.20
2022-10-23T15:26:45.315Z,100121.60
2022-10-23T15:29:14.374Z,100118.40
2022-10-23T15:31:54.456Z,100117.80
2022-10-23T15:34:26.422Z,100120.40
2022-10-23T15:36:56.562Z,100118.60
2022-10-23T15:39:33.438Z,100121.00
2022-10-23T15:42:03.499Z,100125.00
2022-10-23T15:44:32.713Z,100131.20
2022-10-23T15:47:01.035Z,100131.00
2022-10-23T15:49:29.277Z,100132.20
2022-10-23T15:51:57.644Z,100126.20
2022-10-23T15:54:42.817Z,100127.60
2022-10-23T15:57:10.689Z,100134.60
2022-10-23T15:59:38.218Z,100138.20
2022-10-23T16:02:05.782Z,100137.80
2022-10-23T16:04:33.932Z,100145.80
2022-10-23T16:07:01.235Z,100146.20
2022-10-23T16:09:29.817Z,100146.60
2022-10-23T16:11:57.023Z,100144.20
2022-10-23T16:14:24.386Z,100144.80
2022-10-23T16:16:51.626Z,100150.40
2022-10-23T16:19:19.079Z,100152.80
2022-10-23T16:21:46.322Z,100156.00
2022-10-23T16:24:13.942Z,100157.40
2022-10-23T16:26:41.201Z,100157.80
2022-10-23T16:29:09.758Z,100149.00
2022-10-23T16:31:37.499Z,100148.80
2022-10-23T16:34:05.970Z,100149.60
2022-10-23T16:36:34.639Z,100144.20
2022-10-23T16:39:03.282Z,100138.20
2022-10-23T16:41:30.775Z,100140.20
2022-10-23T16:43:58.516Z,100140.40
2022-10-23T16:46:25.837Z,100138.00
2022-10-23T16:48:53.738Z,100136.60
2022-10-23T16:51:25.158Z,100131.40
2022-10-23T16:53:57.136Z,100134.00
2022-10-23T16:56:29.350Z,100140.00
2022-10-23T17:01:30.799Z,100134.60
2022-10-23T17:03:58.756Z,100127.00
2022-10-23T17:06:32.376Z,100125.80
2022-10-23T17:09:01.537Z,100129.40
2022-10-23T17:11:36.256Z,100124.00
2022-10-23T17:14:17.937Z,100122.60
2022-10-23T17:16:51.078Z,100121.80
2022-10-23T17:22:12.267Z,100120.00
2022-10-23T17:24:41.170Z,100119.80
2022-10-23T17:27:09.295Z,100123.00
2022-10-23T17:29:36.637Z,100131.20
2022-10-23T17:32:04.398Z,100135.40
2022-10-23T17:34:31.696Z,100131.80
2022-10-23T17:36:58.955Z,100128.20
2022-10-23T17:39:29.400Z,100129.40
2022-10-23T17:41:57.529Z,100125.80
2022-10-23T17:44:25.079Z,100110.80
2022-10-23T17:46:54.796Z,100112.40
2022-10-23T17:49:24.701Z,100102.60
2022-10-23T17:51:55.695Z,100100.40
2022-10-23T17:54:25.842Z,100094.40
2022-10-23T17:56:54.155Z,100091.80
2022-10-23T17:59:22.275Z,100094.20
2022-10-23T18:01:50.469Z,100091.20
2022-10-23T18:04:21.277Z,100082.40
2022-10-23T18:06:52.358Z,100083.00
2022-10-23T18:09:21.996Z,100082.80
2022-10-23T18:11:50.435Z,100084.60
2022-10-23T18:14:21.243Z,100092.00
2022-10-23T18:16:49.839Z,100084.20
2022-10-23T18:19:18.925Z,100082.20
2022-10-23T18:21:48.055Z,100081.80
2022-10-23T18:24:16.136Z,100077.60
2022-10-23T18:26:47.569Z,100077.00
2022-10-23T18:29:17.752Z,100070.20
2022-10-23T18:31:48.202Z,100063.80
2022-10-23T18:34:22.795Z,100063.80
2022-10-23T18:36:53.116Z,100062.00
2022-10-23T18:39:24.176Z,100057.00
2022-10-23T18:41:56.683Z,100059.20
2022-10-23T18:44:28.469Z,100060.00
2022-10-23T18:46:59.095Z,100061.40
2022-10-23T18:49:27.618Z,100059.80
2022-10-23T18:51:55.602Z,100056.00
2022-10-23T18:54:23.064Z,100054.60
2022-10-23T18:56:50.575Z,100052.00
2022-10-23T18:59:20.662Z,100044.40
2022-10-23T19:01:49.716Z,100041.40
2022-10-23T19:04:18.108Z,100042.40
2022-10-23T19:06:47.919Z,100039.60
2022-10-23T19:09:15.995Z,100031.40
2022-10-23T19:11:45.876Z,100028.60
2022-10-23T19:14:13.751Z,100031.40
2022-10-23T19:17:05.315Z,100025.40
2022-10-23T19:19:45.571Z,100025.80
2022-10-23T19:22:15.935Z,100022.00
2022-10-23T19:24:54.077Z,100025.20
2022-10-23T19:27:21.817Z,100020.40
2022-10-23T19:29:52.915Z,100018.40
2022-10-23T19:32:22.235Z,100015.00
2022-10-23T19:34:50.243Z,100014.80
2022-10-23T19:37:18.233Z,100009.20
2022-10-23T19:39:45.996Z,100000.60
2022-10-23T19:42:13.459Z,100002.60
2022-10-23T19:44:40.960Z,99999.00
2022-10-23T19:47:08.975Z,100006.40
2022-10-23T19:49:36.949Z,100007.20
2022-10-23T19:52:04.851Z,99998.00
2022-10-23T19:54:32.516Z,99995.20
2022-10-23T19:57:02.075Z,99988.60
2022-10-23T19:59:29.635Z,99983.20
2022-10-23T20:01:57.347Z,99987.60
2022-10-23T20:04:24.991Z,99990.60
2022-10-23T20:06:52.758Z,99992.00
2022-10-23T20:09:20.976Z,99990.80
2022-10-23T20:11:48.955Z,99988.80
2022-10-23T20:14:18.855Z,99984.60
2022-10-23T20:16:50.171Z,99978.80
2022-10-23T20:19:21.328Z,99979.60
2022-10-23T20:21:51.297Z,99984.40
2022-10-23T20:24:21.265Z,99978.00
2022-10-23T20:26:54.496Z,99974.00
2022-10-23T20:29:24.760Z,99967.20
2022-10-23T20:31:52.576Z,99963.20
2022-10-23T20:34:20.154Z,99968.40
2022-10-23T20:36:49.709Z,99965.20
2022-10-23T20:39:25.439Z,99954.40
2022-10-23T20:41:57.178Z,99954.60
2022-10-23T20:44:24.748Z,99967.60
2022-10-23T20:46:52.909Z,99975.60
2022-10-23T20:49:21.441Z,99970.00
2022-10-23T20:51:55.644Z,99966.40
2022-10-23T20:54:28.743Z,99969.20
2022-10-23T20:56:57.023Z,99960.40
2022-10-23T20:59:25.217Z,99957.40
2022-10-23T21:01:55.983Z,99956.80
2022-10-23T21:04:28.026Z,99956.40
2022-10-23T21:07:09.306Z,99952.60
2022-10-23T21:09:40.637Z,99946.00
2022-10-23T21:12:09.683Z,99949.40
2022-10-23T21:14:38.825Z,99952.60
2022-10-23T21:17:08.969Z,99953.20
2022-10-23T21:19:40.382Z,99950.40
2022-10-23T21:22:08.195Z,99949.40
2022-10-23T21:24:35.476Z,99941.40
2022-10-23T21:27:02.696Z,99935.00
2022-10-23T21:29:29.997Z,99932.20
2022-10-23T21:32:01.191Z,99918.20
2022-10-23T21:34:29.417Z,99913.00
2022-10-23T21:37:13.823Z,99911.60
2022-10-23T21:39:45.979Z,99919.60
2022-10-23T21:42:14.743Z,99922.00
2022-10-23T21:44:43.117Z,99912.60
2022-10-23T21:47:10.519Z,99903.80
2022-10-23T21:49:37.861Z,99903.00
2022-10-23T21:52:05.285Z,99894.40
2022-10-23T21:54:32.835Z,99890.60
2022-10-23T21:57:00.129Z,99888.40
2022-10-23T22:00:19.862Z,99888.60
2022-10-23T22:06:30.947Z,99881.00
2022-10-23T22:09:18.078Z,99882.80
2022-10-23T22:12:16.465Z,99888.20
2022-10-23T22:14:55.826Z,99890.80
2022-10-23T22:17:56.261Z,99884.00
2022-10-23T22:20:32.908Z,99877.20
2022-10-23T22:23:30.737Z,99871.40
2022-10-23T22:26:34.023Z,99864.00
2022-10-23T22:29:31.625Z,99861.00
2022-10-23T22:32:09.732Z,99854.20
2022-10-23T22:35:06.914Z,99848.60
2022-10-23T22:37:47.049Z,99845.00
2022-10-23T22:40:46.626Z,99842.40
2022-10-23T22:43:25.262Z,99848.40
2022-10-23T22:46:23.748Z,99848.00
2022-10-23T22:52:02.468Z,99857.80
2022-10-23T22:54:40.522Z,99869.00
2022-10-23T22:57:40.031Z,99866.40
2022-10-23T23:00:17.178Z,99872.60
2022-10-23T23:03:15.157Z,99863.00
2022-10-23T23:05:53.013Z,99867.60
2022-10-23T23:08:52.162Z,99863.40
2022-10-23T23:11:45.652Z,99872.20
2022-10-23T23:14:28.453Z,99867.20
2022-10-23T23:17:09.766Z,99874.40
2022-10-23T23:20:07.748Z,99880.00
2022-10-23T23:22:46.773Z,99879.20
2022-10-23T23:25:47.926Z,99883.00
2022-10-23T23:28:28.816Z,99881.80
2022-10-23T23:31:26.931Z,99871.40
2022-10-23T23:34:23.802Z,99871.20
2022-10-23T23:37:03.120Z,99875.40
2022-10-23T23:40:03.175Z,99873.80
2022-10-23T23:42:40.119Z,99875.40
2022-10-23T23:45:15.241Z,99875.60
2022-10-23T23:48:00.553Z,99870.20
2022-10-23T23:51:00.827Z,99883.80
2022-10-23T23:53:40.321Z,99896.20
2022-10-23T23:56:38.172Z,99890.80
2022-10-23T23:59:19.350Z,99888.40
